createdAt,value
2022-08-22T00:02:09.010Z,98056.31
2022-08-22T00:02:49.791Z,98077.13
2022-08-22T00:05:05.736Z,98047.81
2022-08-22T00:07:56.392Z,98041.85
2022-08-22T00:11:25.950Z,98036.85
2022-08-22T00:14:35.308Z,98032.82
2022-08-22T00:17:33.966Z,98026.65
2022-08-22T00:20:33.233Z,98021.08
2022-08-22T00:23:30.471Z,98022.89
2022-08-22T00:26:45.438Z,98026.73
2022-08-22T00:29:46.003Z,98025.09
2022-08-22T00:32:43.558Z,98026.61
2022-08-22T00:35:42.926Z,98025.59
2022-08-22T00:38:39.771Z,98025.02
2022-08-22T00:41:57.120Z,98024.42
2022-08-22T00:45:09.473Z,98026.80
2022-08-22T00:48:22.051Z,98025.49
2022-08-22T00:51:25.087Z,98026.69
2022-08-22T00:54:21.459Z,98030.30
2022-08-22T00:57:42.416Z,98028.80
2022-08-22T01:04:34.040Z,98027.59
2022-08-22T01:07:37.931Z,98037.50
2022-08-22T01:10:40.775Z,98035.15
2022-08-22T01:13:53.356Z,98036.05
2022-08-22T01:16:54.967Z,98036.23
2022-08-22T01:20:06.350Z,98037.59
2022-08-22T01:23:19.120Z,98041.02
2022-08-22T01:26:33.774Z,98042.33
2022-08-22T01:30:01.108Z,98035.27
2022-08-22T01:32:56.931Z,98038.64
2022-08-22T01:36:10.359Z,98040.67
2022-08-22T01:39:29.118Z,98044.95
2022-08-22T01:42:48.186Z,98042.99
2022-08-22T01:45:47.418Z,98043.49
2022-08-22T01:48:54.255Z,98041.35
2022-08-22T01:51:50.949Z,98042.98
2022-08-22T01:54:48.928Z,98038.52
2022-08-22T01:57:52.151Z,98040.76
2022-08-22T02:00:56.862Z,98041.17
2022-08-22T02:04:06.091Z,98045.67
2022-08-22T02:07:14.498Z,98045.34
2022-08-22T02:10:19.908Z,98042.45
2022-08-22T02:13:13.205Z,98048.35
2022-08-22T02:16:38.953Z,98051.27
2022-08-22T02:19:50.277Z,98041.84
2022-08-22T02:23:08.313Z,98045.21
2022-08-22T02:26:10.143Z,98053.11
2022-08-22T02:29:04.714Z,98053.90
2022-08-22T02:32:02.134Z,98054.44
2022-08-22T02:34:59.663Z,98053.89
2022-08-22T02:38:37.154Z,98054.23
2022-08-22T02:41:55.609Z,98054.13
2022-08-22T02:44:53.057Z,98058.22
2022-08-22T02:47:46.339Z,98056.09
2022-08-22T02:50:45.645Z,98052.19
2022-08-22T02:53:56.482Z,98047.27
2022-08-22T02:56:57.884Z,98050.12
2022-08-22T03:00:32.641Z,98048.04
2022-08-22T03:03:27.440Z,98045.52
2022-08-22T03:06:38.557Z,98047.25
2022-08-22T03:09:30.847Z,98045.94
2022-08-22T03:12:25.674Z,98041.56
2022-08-22T03:15:41.023Z,98044.21
2022-08-22T03:18:48.873Z,98044.27
2022-08-22T03:21:50.418Z,98048.41
2022-08-22T03:24:48.459Z,98047.04
2022-08-22T03:27:42.494Z,98045.66
2022-08-22T03:30:39.419Z,98041.45
2022-08-22T03:33:31.881Z,98040.63
2022-08-22T03:36:18.937Z,98042.31
2022-08-22T03:39:52.117Z,98041.70
2022-08-22T03:43:02.219Z,98045.88
2022-08-22T03:46:30.889Z,98045.98
2022-08-22T03:49:59.524Z,98047.63
2022-08-22T03:53:21.093Z,98047.67
2022-08-22T03:56:23.906Z,98047.98
2022-08-22T03:59:27.447Z,98036.64
2022-08-22T04:02:44.007Z,98042.32
2022-08-22T04:05:56.553Z,98037.92
2022-08-22T04:09:11.112Z,98038.46
2022-08-22T04:12:17.972Z,98040.17
2022-08-22T04:15:29.169Z,98045.15
2022-08-22T04:18:33.440Z,98045.39
2022-08-22T04:21:58.285Z,98046.80
2022-08-22T04:24:59.505Z,98048.97
2022-08-22T04:28:06.184Z,98046.97
2022-08-22T04:31:08.861Z,98048.66
2022-08-22T04:34:15.387Z,98046.27
2022-08-22T04:37:14.829Z,98048.73
2022-08-22T04:40:20.225Z,98052.45
2022-08-22T04:43:36.770Z,98056.31
2022-08-22T04:46:38.879Z,98059.44
2022-08-22T04:49:29.027Z,98057.91
2022-08-22T04:52:34.931Z,98057.82
2022-08-22T04:55:33.356Z,98064.23
2022-08-22T04:58:20.211Z,98069.93
2022-08-22T05:01:07.268Z,98070.67
2022-08-22T05:04:19.163Z,98070.52
2022-08-22T05:07:13.594Z,98069.48
2022-08-22T05:10:16.559Z,98076.64
2022-08-22T05:13:09.082Z,98078.51
2022-08-22T05:16:00.019Z,98080.05
2022-08-22T05:18:52.978Z,98082.14
2022-08-22T05:21:42.968Z,98089.88
2022-08-22T05:24:41.280Z,98094.10
2022-08-22T05:27:41.171Z,98093.35
2022-08-22T05:30:31.587Z,98100.33
2022-08-22T05:33:27.049Z,98103.36
2022-08-22T05:36:23.453Z,98103.77
2022-08-22T05:39:25.240Z,98103.09
2022-08-22T05:42:16.078Z,98108.60
2022-08-22T05:45:12.067Z,98115.81
2022-08-22T05:48:06.579Z,98113.66
2022-08-22T05:51:03.922Z,98116.98
2022-08-22T05:54:02.456Z,98121.52
2022-08-22T05:57:00.116Z,98127.86
2022-08-22T05:59:53.031Z,98124.66
2022-08-22T06:03:27.820Z,98128.23
2022-08-22T06:06:19.025Z,98130.91
2022-08-22T06:09:35.524Z,98134.13
2022-08-22T06:12:32.047Z,98134.46
2022-08-22T06:15:34.417Z,98137.47
2022-08-22T06:18:26.953Z,98140.80
2022-08-22T06:21:22.247Z,98137.05
2022-08-22T06:24:16.737Z,98142.46
2022-08-22T06:27:14.414Z,98142.92
2022-08-22T06:30:03.996Z,98140.85
2022-08-22T06:33:01.071Z,98133.98
2022-08-22T06:36:10.182Z,98135.23
2022-08-22T06:39:16.426Z,98139.03
2022-08-22T06:42:15.895Z,98145.52
2022-08-22T06:45:07.457Z,98153.31
2022-08-22T06:48:00.553Z,98145.16
2022-08-22T06:50:53.578Z,98150.88
2022-08-22T06:53:48.048Z,98141.05
2022-08-22T06:56:44.835Z,98146.44
2022-08-22T06:59:37.599Z,98144.33
2022-08-22T07:02:38.167Z,98141.93
2022-08-22T07:05:28.752Z,98145.00
2022-08-22T07:08:20.156Z,98147.94
2022-08-22T07:11:23.757Z,98148.52
2022-08-22T07:14:17.184Z,98150.98
2022-08-22T07:17:07.713Z,98152.70
2022-08-22T07:20:23.685Z,98150.84
2022-08-22T07:23:48.109Z,98146.54
2022-08-22T07:26:44.636Z,98150.10
2022-08-22T07:29:56.163Z,98148.66
2022-08-22T07:33:25.975Z,98147.14
2022-08-22T07:36:31.967Z,98148.88
2022-08-22T07:39:28.536Z,98151.29
2022-08-22T07:42:21.786Z,98153.70
2022-08-22T07:45:25.240Z,98155.70
2022-08-22T07:48:59.519Z,98154.91
2022-08-22T07:51:55.369Z,98154.55
2022-08-22T07:54:51.176Z,98156.75
2022-08-22T07:57:41.816Z,98155.11
2022-08-22T08:00:30.413Z,98156.61
2022-08-22T08:03:17.846Z,98155.99
2022-08-22T08:06:05.530Z,98157.96
2022-08-22T08:08:53.963Z,98158.34
2022-08-22T08:11:43.761Z,98154.55
2022-08-22T08:14:32.598Z,98154.62
2022-08-22T08:17:31.384Z,98152.66
2022-08-22T08:20:22.590Z,98150.05
2022-08-22T08:23:12.126Z,98150.71
2022-08-22T08:26:18.457Z,98156.52
2022-08-22T08:29:07.437Z,98155.33
2022-08-22T08:31:55.424Z,98160.96
2022-08-22T08:34:44.282Z,98160.21
2022-08-22T08:37:47.952Z,98164.94
2022-08-22T08:40:34.975Z,98162.69
2022-08-22T08:43:27.847Z,98159.39
2022-08-22T08:46:55.231Z,98160.18
2022-08-22T08:49:52.127Z,98156.02
2022-08-22T08:53:01.512Z,98153.54
2022-08-22T08:56:07.363Z,98151.48
2022-08-22T08:59:17.895Z,98148.05
2022-08-22T09:02:46.734Z,98146.80
2022-08-22T09:06:08.235Z,98149.16
2022-08-22T09:08:58.160Z,98154.51
2022-08-22T09:12:23.774Z,98152.08
2022-08-22T09:15:43.843Z,98150.04
2022-08-22T09:19:10.597Z,98154.05
2022-08-22T09:22:20.759Z,98148.43
2022-08-22T09:25:38.428Z,98139.52
2022-08-22T09:28:53.556Z,98141.77
2022-08-22T09:32:13.156Z,98150.21
2022-08-22T09:35:41.181Z,98152.27
2022-08-22T09:38:50.024Z,98150.17
2022-08-22T09:42:00.315Z,98158.67
2022-08-22T09:45:14.744Z,98160.59
2022-08-22T09:48:11.749Z,98161.58
2022-08-22T09:51:32.166Z,98159.63
2022-08-22T09:54:32.757Z,98164.11
2022-08-22T09:57:57.100Z,98167.59
2022-08-22T10:01:11.798Z,98174.76
2022-08-22T10:04:27.616Z,98170.10
2022-08-22T10:07:40.582Z,98171.02
2022-08-22T10:10:39.622Z,98170.97
2022-08-22T10:13:42.935Z,98167.83
2022-08-22T10:16:57.320Z,98169.46
2022-08-22T10:20:10.739Z,98174.98
2022-08-22T10:23:15.761Z,98178.05
2022-08-22T10:26:25.651Z,98181.86
2022-08-22T10:29:38.054Z,98187.84
2022-08-22T10:32:42.855Z,98186.70
2022-08-22T10:35:39.993Z,98182.30
2022-08-22T10:38:53.294Z,98181.77
2022-08-22T10:42:07.216Z,98181.69
2022-08-22T10:45:23.911Z,98176.82
2022-08-22T10:48:47.199Z,98175.81
2022-08-22T10:51:43.716Z,98175.80
2022-08-22T10:54:56.658Z,98177.11
2022-08-22T10:58:10.868Z,98174.61
2022-08-22T11:01:01.658Z,98172.85
2022-08-22T11:04:32.998Z,98171.75
2022-08-22T11:07:29.374Z,98168.08
2022-08-22T11:10:30.945Z,98167.79
2022-08-22T11:13:46.051Z,98166.75
2022-08-22T11:17:28.791Z,98166.66
2022-08-22T11:20:28.580Z,98164.66
2022-08-22T11:23:44.625Z,98161.58
2022-08-22T11:26:47.051Z,98159.40
2022-08-22T11:30:20.170Z,98164.81
2022-08-22T11:33:46.437Z,98156.76
2022-08-22T11:36:50.737Z,98157.56
2022-08-22T11:40:01.732Z,98162.09
2022-08-22T11:43:06.996Z,98164.86
2022-08-22T11:46:21.048Z,98166.27
2022-08-22T11:49:41.995Z,98168.07
2022-08-22T11:52:42.535Z,98160.67
2022-08-22T11:55:49.748Z,98156.89
2022-08-22T11:59:03.383Z,98155.71
2022-08-22T12:02:05.123Z,98157.73
2022-08-22T12:05:05.252Z,98153.50
2022-08-22T12:08:01.877Z,98151.90
2022-08-22T12:11:10.345Z,98155.55
2022-08-22T12:14:06.304Z,98157.28
2022-08-22T12:17:11.568Z,98156.98
2022-08-22T12:20:45.402Z,98150.17
2022-08-22T12:23:58.120Z,98147.66
2022-08-22T12:26:57.582Z,98144.33
2022-08-22T12:29:48.400Z,98145.38
2022-08-22T12:32:54.505Z,98137.14
2022-08-22T12:35:54.849Z,98137.90
2022-08-22T12:38:47.532Z,98142.64
2022-08-22T12:41:48.427Z,98138.69
2022-08-22T12:45:00.205Z,98135.35
2022-08-22T12:47:55.913Z,98136.24
2022-08-22T12:50:46.334Z,98133.75
2022-08-22T12:53:52.873Z,98136.04
2022-08-22T12:57:01.678Z,98132.31
2022-08-22T12:59:54.354Z,98139.40
2022-08-22T13:02:41.778Z,98142.09
2022-08-22T13:05:31.422Z,98141.95
2022-08-22T13:08:44.777Z,98137.73
2022-08-22T13:11:39.319Z,98135.31
2022-08-22T13:14:29.163Z,98137.83
2022-08-22T13:17:24.383Z,98139.36
2022-08-22T13:20:22.408Z,98137.11
2022-08-22T13:23:19.472Z,98139.54
2022-08-22T13:26:33.223Z,98139.34
2022-08-22T13:29:42.879Z,98137.04
2022-08-22T13:32:38.356Z,98132.73
2022-08-22T13:35:34.027Z,98132.25
2022-08-22T13:38:26.676Z,98128.46
2022-08-22T13:41:22.150Z,98127.20
2022-08-22T13:44:21.361Z,98131.88
2022-08-22T13:47:15.029Z,98130.90
2022-08-22T13:50:07.118Z,98134.31
2022-08-22T13:53:19.749Z,98130.94
2022-08-22T13:56:17.621Z,98126.78
2022-08-22T13:59:25.341Z,98124.13
2022-08-22T14:02:56.615Z,98121.66
2022-08-22T14:05:55.005Z,98113.79
2022-08-22T14:08:59.319Z,98117.86
2022-08-22T14:11:51.276Z,98121.08
2022-08-22T14:14:41.581Z,98120.13
2022-08-22T14:17:43.111Z,98121.52
2022-08-22T14:20:32.368Z,98119.33
2022-08-22T14:23:29.526Z,98120.66
2022-08-22T14:26:47.443Z,98113.88
2022-08-22T14:29:57.197Z,98110.70
2022-08-22T14:33:03.621Z,98107.31
2022-08-22T14:35:56.666Z,98104.04
2022-08-22T14:39:16.559Z,98104.30
2022-08-22T14:42:22.969Z,98102.50
2022-08-22T14:45:22.623Z,98113.55
2022-08-22T14:48:30.246Z,98112.48
2022-08-22T14:51:23.056Z,98111.27
2022-08-22T14:54:21.546Z,98112.27
2022-08-22T14:57:18.499Z,98109.60
2022-08-22T15:00:12.488Z,98107.65
2022-08-22T15:03:20.460Z,98109.19
2022-08-22T15:06:29.229Z,98111.02
2022-08-22T15:09:28.539Z,98112.07
2022-08-22T15:12:32.838Z,98114.75
2022-08-22T15:15:52.879Z,98117.33
2022-08-22T15:18:47.585Z,98121.34
2022-08-22T15:21:41.499Z,98131.83
2022-08-22T15:24:29.914Z,98129.38
2022-08-22T15:27:20.748Z,98124.61
2022-08-22T15:30:18.756Z,98114.73
2022-08-22T15:33:29.348Z,98112.94
2022-08-22T15:36:22.441Z,98114.65
2022-08-22T15:39:31.667Z,98120.20
2022-08-22T15:42:27.581Z,98112.59
2022-08-22T15:45:36.187Z,98113.52
2022-08-22T15:48:34.147Z,98107.86
2022-08-22T15:51:37.346Z,98104.73
2022-08-22T15:54:57.012Z,98108.08
2022-08-22T15:58:06.763Z,98105.77
2022-08-22T16:01:17.966Z,98115.23
2022-08-22T16:04:12.827Z,98126.59
2022-08-22T16:07:02.428Z,98132.55
2022-08-22T16:09:56.866Z,98129.89
2022-08-22T16:12:47.808Z,98143.67
2022-08-22T16:15:55.720Z,98145.52
2022-08-22T16:18:48.856Z,98150.77
2022-08-22T16:21:38.495Z,98152.38
2022-08-22T16:24:33.824Z,98156.80
2022-08-22T16:27:24.860Z,98157.89
2022-08-22T16:30:44.197Z,98163.30
2022-08-22T16:34:08.943Z,98172.38
2022-08-22T16:37:43.088Z,98174.85
2022-08-22T16:41:15.932Z,98163.96
2022-08-22T16:44:52.086Z,98161.45
2022-08-22T16:48:25.921Z,98169.35
2022-08-22T16:51:56.979Z,98176.09
2022-08-22T16:55:33.141Z,98175.89
2022-08-22T16:59:22.479Z,98167.75
2022-08-22T17:02:54.105Z,98168.66
2022-08-22T17:06:31.967Z,98170.38
2022-08-22T17:10:33.120Z,98177.86
2022-08-22T17:14:04.963Z,98177.90
2022-08-22T17:17:58.278Z,98178.16
2022-08-22T17:21:35.000Z,98184.54
2022-08-22T17:25:16.052Z,98178.79
2022-08-22T17:28:45.948Z,98181.38
2022-08-22T17:32:25.101Z,98179.92
2022-08-22T17:36:01.048Z,98176.81
2022-08-22T17:39:55.901Z,98179.95
2022-08-22T17:43:48.613Z,98185.05
2022-08-22T17:47:27.077Z,98186.80
2022-08-22T17:51:02.955Z,98187.56
2022-08-22T17:54:44.049Z,98191.20
2022-08-22T17:58:37.403Z,98196.16
2022-08-22T18:02:23.070Z,98199.06
2022-08-22T18:05:51.943Z,98208.83
2022-08-22T18:09:27.933Z,98207.15
2022-08-22T18:13:06.673Z,98210.37
2022-08-22T18:16:40.941Z,98204.05
2022-08-22T18:20:11.125Z,98213.95
2022-08-22T18:23:44.956Z,98213.00
2022-08-22T18:27:30.009Z,98212.02
2022-08-22T18:31:30.013Z,98192.65
2022-08-22T18:35:10.118Z,98185.71
2022-08-22T18:38:53.984Z,98180.89
2022-08-22T18:42:25.180Z,98182.59
2022-08-22T18:46:17.015Z,98192.42
2022-08-22T18:49:49.176Z,98197.41
2022-08-22T18:53:24.745Z,98204.33
2022-08-22T18:57:13.154Z,98202.39
2022-08-22T19:00:43.059Z,98203.63
2022-08-22T19:04:29.234Z,98207.39
2022-08-22T19:08:13.071Z,98205.66
2022-08-22T19:11:59.178Z,98199.36
2022-08-22T19:15:31.027Z,98197.33
2022-08-22T19:19:17.087Z,98199.46
2022-08-22T19:22:46.015Z,98191.80
2022-08-22T19:27:02.154Z,98194.17
2022-08-22T19:30:33.004Z,98188.63
2022-08-22T19:34:09.380Z,98182.80
2022-08-22T19:37:52.141Z,98173.58
2022-08-22T19:41:23.223Z,98181.33
2022-08-22T19:44:55.090Z,98176.92
2022-08-22T19:48:31.231Z,98180.18
2022-08-22T19:52:07.943Z,98187.09
2022-08-22T19:55:53.083Z,98185.81
2022-08-22T19:59:31.231Z,98182.27
2022-08-22T20:03:09.160Z,98183.98
2022-08-22T20:06:56.997Z,98184.42
2022-08-22T20:10:42.097Z,98178.21
2022-08-22T20:14:09.921Z,98172.11
2022-08-22T20:17:41.305Z,98169.09
2022-08-22T20:21:21.944Z,98166.88
2022-08-22T20:25:41.378Z,98167.96
2022-08-22T20:29:13.094Z,98163.13
2022-08-22T20:35:36.834Z,98169.37
2022-08-22T20:39:12.893Z,98167.66
2022-08-22T20:42:53.808Z,98160.64
2022-08-22T20:46:43.562Z,98158.71
2022-08-22T20:50:19.834Z,98157.42
2022-08-22T20:53:55.859Z,98161.35
2022-08-22T20:57:37.803Z,98154.78
2022-08-22T21:01:11.018Z,98152.75
2022-08-22T21:04:46.824Z,98157.02
2022-08-22T21:08:30.865Z,98161.01
2022-08-22T21:12:19.531Z,98163.94
2022-08-22T21:16:19.437Z,98168.83
2022-08-22T21:20:10.994Z,98180.05
2022-08-22T21:24:11.432Z,98168.15
2022-08-22T21:28:11.096Z,98165.27
2022-08-22T21:31:47.215Z,98168.84
2022-08-22T21:35:23.067Z,98178.55
2022-08-22T21:38:55.228Z,98184.81
2022-08-22T21:42:31.096Z,98197.30
2022-08-22T21:46:09.236Z,98192.66
2022-08-22T23:04:45.411Z,98180.10
2022-08-22T23:07:35.961Z,98187.26
2022-08-22T23:10:23.349Z,98182.87
2022-08-22T23:13:10.642Z,98167.27
2022-08-22T23:15:57.633Z,98148.48
2022-08-22T23:18:44.841Z,98142.56
2022-08-22T23:21:31.767Z,98143.25
2022-08-22T23:24:18.708Z,98137.07
2022-08-22T23:27:07.881Z,98133.49
2022-08-22T23:29:54.842Z,98140.83
2022-08-22T23:32:41.916Z,98151.30
2022-08-22T23:35:29.258Z,98150.52
2022-08-22T23:38:16.656Z,98153.91
2022-08-22T23:41:09.870Z,98158.73
2022-08-22T23:43:57.501Z,98158.09
2022-08-22T23:46:44.601Z,98158.24
2022-08-22T23:49:33.040Z,98158.27
2022-08-22T23:52:20.896Z,98156.37
2022-08-22T23:55:08.879Z,98157.14
2022-08-22T23:57:55.846Z,98159.40
